Terminal Aerodrome Forecast
Issued by NWS

Home | Current Version | Previous Version | Text Only | Print | Product List | Glossary On
Versions: 1 2 3 4 5 6 7 8 9 10 11 12 13 14 15 16
000
FTUS42 KJAX 251720
TAFCRG
TAF
KCRG 251720Z 2518/2618 12012G18KT P6SM FEW040 BKN060
     FM252200 12010G15KT P6SM SCT040
     FM260200 VRB03KT P6SM FEW035 BKN250
     FM260900 00000KT 5SM BR BKN050 BKN100
     FM261300 15006KT P6SM SCT250=

USA.gov is the U.S. government's official web portal to all federal, state and local government web resources and services.